sensor_id;sensor_type;location;lat;lon;timestamp;pressure;altitude;pressure_sealevel;temperature;humidity
24013;BME280;12220;50.194;18.948;2023-04-15T00:01:57;100531.73;;;12.19;67.54
24013;BME280;12220;50.194;18.948;2023-04-15T00:04:07;100531.23;;;12.14;67.54
24013;BME280;12220;50.194;18.948;2023-04-15T00:06:09;100535.45;;;12.07;67.48
24013;BME280;12220;50.194;18.948;2023-04-15T00:08:11;100532.34;;;12.00;67.57
24013;BME280;12220;50.194;18.948;2023-04-15T00:10:13;100530.95;;;11.94;67.76
24013;BME280;12220;50.194;18.948;2023-04-15T00:12:17;100526.66;;;11.90;67.90
24013;BME280;12220;50.194;18.948;2023-04-15T00:14:18;100526.02;;;11.86;67.92
24013;BME280;12220;50.194;18.948;2023-04-15T00:16:20;100523.52;;;11.83;67.86
24013;BME280;12220;50.194;18.948;2023-04-15T00:18:23;100545.95;;;11.77;67.81
24013;BME280;12220;50.194;18.948;2023-04-15T00:20:33;100554.67;;;11.71;67.83
24013;BME280;12220;50.194;18.948;2023-04-15T00:22:34;100557.91;;;11.65;67.92
24013;BME280;12220;50.194;18.948;2023-04-15T00:24:36;100554.87;;;11.57;68.03
24013;BME280;12220;50.194;18.948;2023-04-15T00:26:38;100552.61;;;11.50;68.17
24013;BME280;12220;50.194;18.948;2023-04-15T00:28:50;100545.48;;;11.48;68.30
24013;BME280;12220;50.194;18.948;2023-04-15T00:30:52;100553.06;;;11.44;68.27
24013;BME280;12220;50.194;18.948;2023-04-15T00:32:56;100561.52;;;11.41;68.26
24013;BME280;12220;50.194;18.948;2023-04-15T00:34:57;100557.27;;;11.37;68.36
24013;BME280;12220;50.194;18.948;2023-04-15T00:37:02;100567.59;;;11.33;68.43
24013;BME280;12220;50.194;18.948;2023-04-15T00:39:03;100574.19;;;11.31;68.47
24013;BME280;12220;50.194;18.948;2023-04-15T00:41:07;100579.04;;;11.27;68.41
24013;BME280;12220;50.194;18.948;2023-04-15T00:43:10;100583.98;;;11.22;68.41
24013;BME280;12220;50.194;18.948;2023-04-15T00:45:17;100584.34;;;11.18;68.49
24013;BME280;12220;50.194;18.948;2023-04-15T00:47:20;100587.43;;;11.13;68.65
24013;BME280;12220;50.194;18.948;2023-04-15T00:49:21;100572.95;;;11.11;68.51
24013;BME280;12220;50.194;18.948;2023-04-15T00:51:23;100574.08;;;11.08;68.59
24013;BME280;12220;50.194;18.948;2023-04-15T00:53:32;100585.46;;;11.02;68.47
24013;BME280;12220;50.194;18.948;2023-04-15T00:55:33;100591.53;;;10.94;68.51
24013;BME280;12220;50.194;18.948;2023-04-15T00:57:37;100593.95;;;10.86;68.61
24013;BME280;12220;50.194;18.948;2023-04-15T00:59:39;100585.56;;;10.76;68.74
24013;BME280;12220;50.194;18.948;2023-04-15T01:01:47;100586.88;;;10.71;69.03
24013;BME280;12220;50.194;18.948;2023-04-15T01:03:50;100608.13;;;10.67;69.28
24013;BME280;12220;50.194;18.948;2023-04-15T01:05:52;100591.80;;;10.66;69.46
24013;BME280;12220;50.194;18.948;2023-04-15T01:07:58;100589.06;;;10.66;69.49
24013;BME280;12220;50.194;18.948;2023-04-15T01:10:03;100583.59;;;10.66;69.42
24013;BME280;12220;50.194;18.948;2023-04-15T01:12:05;100589.29;;;10.62;69.45
24013;BME280;12220;50.194;18.948;2023-04-15T01:14:09;100397.75;;;9.48;69.48
24013;BME280;12220;50.194;18.948;2023-04-15T01:16:10;100587.76;;;10.58;69.56
24013;BME280;12220;50.194;18.948;2023-04-15T01:18:18;100582.51;;;10.55;69.50
24013;BME280;12220;50.194;18.948;2023-04-15T01:20:20;100593.68;;;10.52;69.58
24013;BME280;12220;50.194;18.948;2023-04-15T01:22:22;100583.08;;;10.48;69.76
24013;BME280;12220;50.194;18.948;2023-04-15T01:24:25;100586.68;;;10.48;69.88
24013;BME280;12220;50.194;18.948;2023-04-15T01:26:32;100586.68;;;10.48;69.79
24013;BME280;12220;50.194;18.948;2023-04-15T01:28:35;100580.56;;;10.44;69.74
24013;BME280;12220;50.194;18.948;2023-04-15T01:30:37;100579.89;;;10.41;69.70
24013;BME280;12220;50.194;18.948;2023-04-15T01:32:38;100582.10;;;10.36;69.77
24013;BME280;12220;50.194;18.948;2023-04-15T01:34:47;100584.36;;;10.29;69.96
24013;BME280;12220;50.194;18.948;2023-04-15T01:36:48;100584.47;;;10.27;70.14
24013;BME280;12220;50.194;18.948;2023-04-15T01:38:50;100585.56;;;10.25;70.26
24013;BME280;12220;50.194;18.948;2023-04-15T01:40:51;100583.83;;;10.24;70.27
24013;BME280;12220;50.194;18.948;2023-04-15T01:43:02;100588.41;;;10.23;70.25
24013;BME280;12220;50.194;18.948;2023-04-15T01:45:04;100594.10;;;10.20;70.33
24013;BME280;12220;50.194;18.948;2023-04-15T01:47:07;100594.22;;;10.19;70.49
24013;BME280;12220;50.194;18.948;2023-04-15T01:49:09;100597.81;;;10.19;70.61
24013;BME280;12220;50.194;18.948;2023-04-15T01:51:26;100606.81;;;10.21;70.66
24013;BME280;12220;50.194;18.948;2023-04-15T01:53:38;100607.56;;;10.23;70.63
24013;BME280;12220;50.194;18.948;2023-04-15T01:55:40;100607.67;;;10.22;70.50
24013;BME280;12220;50.194;18.948;2023-04-15T01:57:41;100614.23;;;10.19;70.50
24013;BME280;12220;50.194;18.948;2023-04-15T01:59:43;100609.87;;;10.17;70.54
24013;BME280;12220;50.194;18.948;2023-04-15T02:01:53;100613.81;;;10.12;70.47
24013;BME280;12220;50.194;18.948;2023-04-15T02:03:55;100618.71;;;10.07;70.50
24013;BME280;12220;50.194;18.948;2023-04-15T02:05:57;100617.38;;;10.00;70.58
24013;BME280;12220;50.194;18.948;2023-04-15T02:07:58;100616.96;;;9.93;70.66
24013;BME280;12220;50.194;18.948;2023-04-15T02:10:08;100622.86;;;9.87;70.83
24013;BME280;12220;50.194;18.948;2023-04-15T02:12:11;100618.90;;;9.79;70.98
24013;BME280;12220;50.194;18.948;2023-04-15T02:14:13;100626.53;;;9.73;71.12
24013;BME280;12220;50.194;18.948;2023-04-15T02:16:18;100635.81;;;9.71;71.27
24013;BME280;12220;50.194;18.948;2023-04-15T02:18:23;100635.81;;;9.71;71.36
24013;BME280;12220;50.194;18.948;2023-04-15T02:20:25;100640.41;;;9.70;71.46
24013;BME280;12220;50.194;18.948;2023-04-15T02:22:26;100640.41;;;9.70;71.58
24013;BME280;12220;50.194;18.948;2023-04-15T02:24:29;100634.95;;;9.70;71.64
24013;BME280;12220;50.194;18.948;2023-04-15T02:26:38;100642.93;;;9.73;71.67
24013;BME280;12220;50.194;18.948;2023-04-15T02:28:40;100644.70;;;9.74;71.68
24013;BME280;12220;50.194;18.948;2023-04-15T02:30:47;100641.85;;;9.76;71.72
24013;BME280;12220;50.194;18.948;2023-04-15T02:32:53;100641.76;;;9.77;71.63
24013;BME280;12220;50.194;18.948;2023-04-15T02:34:54;100647.23;;;9.77;71.61
24013;BME280;12220;50.194;18.948;2023-04-15T02:36:56;100644.60;;;9.76;71.60
24013;BME280;12220;50.194;18.948;2023-04-15T02:38:57;100647.33;;;9.76;71.62
24013;BME280;12220;50.194;18.948;2023-04-15T02:40:59;100653.66;;;9.76;71.59
24013;BME280;12220;50.194;18.948;2023-04-15T02:43:11;100657.37;;;9.75;71.45
24013;BME280;12220;50.194;18.948;2023-04-15T02:45:13;100661.10;;;9.74;71.41
24013;BME280;12220;50.194;18.948;2023-04-15T02:47:14;100652.22;;;9.71;71.42
24013;BME280;12220;50.194;18.948;2023-04-15T02:49:16;100651.35;;;9.70;71.41
24013;BME280;12220;50.194;18.948;2023-04-15T02:51:23;100656.71;;;9.72;71.34
24013;BME280;12220;50.194;18.948;2023-04-15T02:53:25;100663.95;;;9.73;71.28
24013;BME280;12220;50.194;18.948;2023-04-15T02:55:27;100671.04;;;9.75;71.15
24013;BME280;12220;50.194;18.948;2023-04-15T02:57:28;100666.47;;;9.76;70.99
24013;BME280;12220;50.194;18.948;2023-04-15T02:59:38;100668.20;;;9.77;70.76
24013;BME280;12220;50.194;18.948;2023-04-15T03:01:42;100677.41;;;9.76;70.69
24013;BME280;12220;50.194;18.948;2023-04-15T03:03:43;100675.54;;;9.76;70.63
24013;BME280;12220;50.194;18.948;2023-04-15T03:05:45;100670.07;;;9.76;70.57
24013;BME280;12220;50.194;18.948;2023-04-15T03:07:53;100671.72;;;9.79;70.45
24013;BME280;12220;50.194;18.948;2023-04-15T03:09:54;100675.43;;;9.78;70.32
24013;BME280;12220;50.194;18.948;2023-04-15T03:11:56;100672.70;;;9.78;70.11
24013;BME280;12220;50.194;18.948;2023-04-15T03:13:57;100681.80;;;9.79;70.01
24013;BME280;12220;50.194;18.948;2023-04-15T03:16:08;100690.00;;;9.79;70.01
24013;BME280;12220;50.194;18.948;2023-04-15T03:18:10;100687.27;;;9.79;70.05
24013;BME280;12220;50.194;18.948;2023-04-15T03:20:14;100695.47;;;9.79;70.08
24013;BME280;12220;50.194;18.948;2023-04-15T03:22:16;100688.13;;;9.79;70.05
24013;BME280;12220;50.194;18.948;2023-04-15T03:24:23;100690.08;;;9.77;69.94
24013;BME280;12220;50.194;18.948;2023-04-15T03:26:31;100685.71;;;9.74;69.91
24013;BME280;12220;50.194;18.948;2023-04-15T03:28:33;100686.79;;;9.72;69.94
24013;BME280;12220;50.194;18.948;2023-04-15T03:30:34;100690.50;;;9.71;69.99
24013;BME280;12220;50.194;18.948;2023-04-15T03:32:38;100688.77;;;9.70;69.96
24013;BME280;12220;50.194;18.948;2023-04-15T03:34:41;100699.02;;;9.66;69.95
24013;BME280;12220;50.194;18.948;2023-04-15T03:36:42;100701.20;;;9.61;69.96
24013;BME280;12220;50.194;18.948;2023-04-15T03:38:44;100708.61;;;9.59;70.03
24013;BME280;12220;50.194;18.948;2023-04-15T03:40:53;100711.65;;;9.54;70.08
24013;BME280;12220;50.194;18.948;2023-04-15T03:42:54;100702.86;;;9.49;70.10
24013;BME280;12220;50.194;18.948;2023-04-15T03:44:56;100707.67;;;9.46;70.13
24013;BME280;12220;50.194;18.948;2023-04-15T03:46:57;100710.62;;;9.42;70.12
24013;BME280;12220;50.194;18.948;2023-04-15T03:49:08;100711.59;;;9.41;70.14
24013;BME280;12220;50.194;18.948;2023-04-15T03:51:09;100710.81;;;9.39;70.14
24013;BME280;12220;50.194;18.948;2023-04-15T03:53:11;100709.16;;;9.37;70.07
24013;BME280;12220;50.194;18.948;2023-04-15T03:55:12;100718.43;;;9.34;70.02
24013;BME280;12220;50.194;18.948;2023-04-15T03:57:29;100728.59;;;9.32;69.99
24013;BME280;12220;50.194;18.948;2023-04-15T03:59:44;100727.89;;;9.29;70.00
24013;BME280;12220;50.194;18.948;2023-04-15T04:01:46;100737.09;;;9.28;70.00
24013;BME280;12220;50.194;18.948;2023-04-15T04:03:47;100738.17;;;9.25;69.94
24013;BME280;12220;50.194;18.948;2023-04-15T04:05:49;100734.63;;;9.23;69.90
24013;BME280;12220;50.194;18.948;2023-04-15T04:07:59;100732.00;;;9.21;69.86
24013;BME280;12220;50.194;18.948;2023-04-15T04:10:01;100733.17;;;9.17;69.74
24013;BME280;12220;50.194;18.948;2023-04-15T04:12:03;100729.77;;;9.14;69.69
24013;BME280;12220;50.194;18.948;2023-04-15T04:14:05;100729.98;;;9.11;69.66
24013;BME280;12220;50.194;18.948;2023-04-15T04:16:14;100725.58;;;9.08;69.56
24013;BME280;12220;50.194;18.948;2023-04-15T04:18:16;100725.98;;;9.02;69.46
24013;BME280;12220;50.194;18.948;2023-04-15T04:20:18;100724.41;;;8.98;69.45
24013;BME280;12220;50.194;18.948;2023-04-15T04:22:24;100735.84;;;8.90;69.32
24013;BME280;12220;50.194;18.948;2023-04-15T04:24:30;100733.66;;;8.81;69.33
24013;BME280;12220;50.194;18.948;2023-04-15T04:26:31;100727.83;;;8.72;69.49
24013;BME280;12220;50.194;18.948;2023-04-15T04:28:33;100559.20;;;7.45;69.56
24013;BME280;12220;50.194;18.948;2023-04-15T04:30:36;100728.28;;;8.65;69.87
24013;BME280;12220;50.194;18.948;2023-04-15T04:32:44;100723.92;;;8.62;69.76
24013;BME280;12220;50.194;18.948;2023-04-15T04:34:46;100731.30;;;8.60;69.86
24013;BME280;12220;50.194;18.948;2023-04-15T04:36:48;100737.77;;;8.59;69.96
24013;BME280;12220;50.194;18.948;2023-04-15T04:38:50;100741.36;;;8.60;70.07
24013;BME280;12220;50.194;18.948;2023-04-15T04:40:59;100754.14;;;8.59;70.10
24013;BME280;12220;50.194;18.948;2023-04-15T04:43:01;100745.95;;;8.59;70.10
24013;BME280;12220;50.194;18.948;2023-04-15T04:45:02;100758.60;;;8.60;70.19
24013;BME280;12220;50.194;18.948;2023-04-15T04:47:03;100756.68;;;8.62;70.27
24013;BME280;12220;50.194;18.948;2023-04-15T04:49:14;100756.48;;;8.65;70.25
24013;BME280;12220;50.194;18.948;2023-04-15T04:51:16;100751.02;;;8.65;70.14
24013;BME280;12220;50.194;18.948;2023-04-15T04:53:18;100751.22;;;8.62;70.03
24013;BME280;12220;50.194;18.948;2023-04-15T04:55:19;100758.60;;;8.60;70.02
24013;BME280;12220;50.194;18.948;2023-04-15T04:57:29;100767.09;;;8.55;70.00
24013;BME280;12220;50.194;18.948;2023-04-15T04:59:31;100762.02;;;8.49;70.12
24013;BME280;12220;50.194;18.948;2023-04-15T05:01:33;100766.86;;;8.44;70.25
24013;BME280;12220;50.194;18.948;2023-04-15T05:03:34;100766.91;;;8.43;70.36
24013;BME280;12220;50.194;18.948;2023-04-15T05:05:44;100759.02;;;8.38;70.63
24013;BME280;12220;50.194;18.948;2023-04-15T05:07:46;100767.20;;;8.38;70.87
24013;BME280;12220;50.194;18.948;2023-04-15T05:09:50;100763.41;;;8.41;70.90
24013;BME280;12220;50.194;18.948;2023-04-15T05:11:51;100772.37;;;8.43;70.96
24013;BME280;12220;50.194;18.948;2023-04-15T05:13:59;100782.27;;;8.45;71.04
24013;BME280;12220;50.194;18.948;2023-04-15T05:16:02;100783.84;;;8.49;71.12
24013;BME280;12220;50.194;18.948;2023-04-15T05:18:03;100783.66;;;8.52;71.16
24013;BME280;12220;50.194;18.948;2023-04-15T05:20:05;100777.91;;;8.57;71.20
24013;BME280;12220;50.194;18.948;2023-04-15T05:22:14;100780.25;;;8.63;71.24
24013;BME280;12220;50.194;18.948;2023-04-15T05:24:15;100771.80;;;8.68;71.23
24013;BME280;12220;50.194;18.948;2023-04-15T05:26:21;100770.52;;;8.73;71.18
24013;BME280;12220;50.194;18.948;2023-04-15T05:28:23;100769.36;;;8.78;71.16
24013;BME280;12220;50.194;18.948;2023-04-15T05:30:29;100769.96;;;8.83;71.18
24013;BME280;12220;50.194;18.948;2023-04-15T05:32:31;100773.37;;;8.86;71.19
24013;BME280;12220;50.194;18.948;2023-04-15T05:34:32;100781.36;;;8.89;71.23
24013;BME280;12220;50.194;18.948;2023-04-15T05:36:33;100781.96;;;8.95;71.27
24013;BME280;12220;50.194;18.948;2023-04-15T05:38:44;100776.21;;;8.99;71.33
24013;BME280;12220;50.194;18.948;2023-04-15T05:40:46;100779.54;;;9.04;71.39
24013;BME280;12220;50.194;18.948;2023-04-15T05:42:47;100780.21;;;9.08;71.41
24013;BME280;12220;50.194;18.948;2023-04-15T05:44:49;100776.31;;;9.12;71.42
24013;BME280;12220;50.194;18.948;2023-04-15T05:46:59;100773.28;;;9.17;71.38
24013;BME280;12220;50.194;18.948;2023-04-15T05:49:01;100781.18;;;9.21;71.37
24013;BME280;12220;50.194;18.948;2023-04-15T05:51:10;100582.02;;;8.03;71.23
24013;BME280;12220;50.194;18.948;2023-04-15T05:53:16;100772.31;;;9.32;71.30
24013;BME280;12220;50.194;18.948;2023-04-15T05:57:47;100785.27;;;9.43;71.19
24013;BME280;12220;50.194;18.948;2023-04-15T05:59:57;100784.96;;;9.48;71.12
24013;BME280;12220;50.194;18.948;2023-04-15T06:01:58;100794.73;;;9.52;71.06
24013;BME280;12220;50.194;18.948;2023-04-15T06:04:00;100797.36;;;9.53;71.07
24013;BME280;12220;50.194;18.948;2023-04-15T06:06:11;100804.39;;;9.57;71.07
24013;BME280;12220;50.194;18.948;2023-04-15T06:08:19;100804.98;;;9.63;71.08
24013;BME280;12220;50.194;18.948;2023-04-15T06:10:34;100806.52;;;9.67;71.02
24013;BME280;12220;50.194;18.948;2023-04-15T06:12:36;100814.55;;;9.70;71.00
24013;BME280;12220;50.194;18.948;2023-04-15T06:14:38;100811.61;;;9.73;70.94
24013;BME280;12220;50.194;18.948;2023-04-15T06:16:40;100811.50;;;9.74;70.88
24013;BME280;12220;50.194;18.948;2023-04-15T06:18:54;100812.86;;;9.82;70.84
24013;BME280;12220;50.194;18.948;2023-04-15T06:20:59;100808.05;;;9.85;70.80
24013;BME280;12220;50.194;18.948;2023-04-15T06:23:00;100809.61;;;9.89;70.72
24013;BME280;12220;50.194;18.948;2023-04-15T06:25:02;100815.73;;;9.93;70.66
24013;BME280;12220;50.194;18.948;2023-04-15T06:27:05;100813.59;;;9.98;70.55
24013;BME280;12220;50.194;18.948;2023-04-15T06:29:07;100820.61;;;10.02;70.42
24013;BME280;12220;50.194;18.948;2023-04-15T06:31:12;100813.86;;;10.08;70.23
24013;BME280;12220;50.194;18.948;2023-04-15T06:33:14;100819.13;;;10.11;70.03
24013;BME280;12220;50.194;18.948;2023-04-15T06:35:20;100827.98;;;10.15;69.96
24013;BME280;12220;50.194;18.948;2023-04-15T06:37:22;100825.94;;;10.18;69.89
24013;BME280;12220;50.194;18.948;2023-04-15T06:39:24;100659.46;;;9.03;69.53
24013;BME280;12220;50.194;18.948;2023-04-15T06:41:25;100826.38;;;10.25;69.45
24013;BME280;12220;50.194;18.948;2023-04-15T06:43:35;100816.99;;;10.29;69.36
24013;BME280;12220;50.194;18.948;2023-04-15T06:45:36;100828.73;;;10.31;69.24
24013;BME280;12220;50.194;18.948;2023-04-15T06:47:38;100824.81;;;10.35;69.10
24013;BME280;12220;50.194;18.948;2023-04-15T06:49:40;100825.39;;;10.40;68.90
24013;BME280;12220;50.194;18.948;2023-04-15T06:51:50;100453.55;;;8.22;68.48
24013;BME280;12220;50.194;18.948;2023-04-15T06:53:52;100826.73;;;10.48;68.49
24013;BME280;12220;50.194;18.948;2023-04-15T06:55:54;100828.17;;;10.53;68.38
24013;BME280;12220;50.194;18.948;2023-04-15T06:57:55;100836.83;;;10.60;68.32
24013;BME280;12220;50.194;18.948;2023-04-15T07:00:06;100836.65;;;10.63;67.70
24013;BME280;12220;50.194;18.948;2023-04-15T07:02:12;100866.55;;;10.66;67.46
24013;BME280;12220;50.194;18.948;2023-04-15T07:04:18;100842.55;;;10.70;67.34
24013;BME280;12220;50.194;18.948;2023-04-15T07:06:20;100848.72;;;10.73;67.22
24013;BME280;12220;50.194;18.948;2023-04-15T07:08:22;100843.02;;;10.76;67.06
24013;BME280;12220;50.194;18.948;2023-04-15T07:10:24;100848.39;;;10.78;66.90
24013;BME280;12220;50.194;18.948;2023-04-15T07:12:25;100839.09;;;10.80;66.80
24013;BME280;12220;50.194;18.948;2023-04-15T07:14:27;100846.97;;;10.85;66.60
24013;BME280;12220;50.194;18.948;2023-04-15T07:16:37;100849.40;;;10.90;66.54
24013;BME280;12220;50.194;18.948;2023-04-15T07:18:41;100849.93;;;10.95;66.36
24013;BME280;12220;50.194;18.948;2023-04-15T07:20:43;100846.78;;;11.01;66.26
24013;BME280;12220;50.194;18.948;2023-04-15T07:22:47;100846.34;;;11.07;66.04
24013;BME280;12220;50.194;18.948;2023-04-15T07:24:58;100844.07;;;11.14;65.37
24013;BME280;12220;50.194;18.948;2023-04-15T07:26:59;100841.97;;;11.18;65.18
24013;BME280;12220;50.194;18.948;2023-04-15T07:29:01;100834.30;;;11.23;65.26
24013;BME280;12220;50.194;18.948;2023-04-15T07:31:03;100842.95;;;11.29;65.24
24013;BME280;12220;50.194;18.948;2023-04-15T07:33:07;100839.75;;;11.36;65.04
24013;BME280;12220;50.194;18.948;2023-04-15T07:35:09;100843.92;;;11.41;64.74
24013;BME280;12220;50.194;18.948;2023-04-15T07:37:11;100847.23;;;11.46;64.50
24013;BME280;12220;50.194;18.948;2023-04-15T07:39:13;100843.05;;;11.54;64.42
24013;BME280;12220;50.194;18.948;2023-04-15T07:41:22;100845.23;;;11.61;64.38
24013;BME280;12220;50.194;18.948;2023-04-15T07:43:24;100837.45;;;11.68;64.39
24013;BME280;12220;50.194;18.948;2023-04-15T07:45:25;100842.35;;;11.76;64.12
24013;BME280;12220;50.194;18.948;2023-04-15T07:47:27;100840.05;;;11.82;63.70
24013;BME280;12220;50.194;18.948;2023-04-15T07:49:37;100842.22;;;11.90;63.22
24013;BME280;12220;50.194;18.948;2023-04-15T07:51:42;100842.65;;;11.97;63.04
24013;BME280;12220;50.194;18.948;2023-04-15T07:53:47;100842.97;;;12.05;62.96
24013;BME280;12220;50.194;18.948;2023-04-15T07:55:49;100838.77;;;12.12;62.79
24013;BME280;12220;50.194;18.948;2023-04-15T07:57:52;100840.70;;;12.23;62.65
24013;BME280;12220;50.194;18.948;2023-04-15T07:59:53;100839.02;;;12.33;62.40
24013;BME280;12220;50.194;18.948;2023-04-15T08:01:55;100839.18;;;12.43;61.60
24013;BME280;12220;50.194;18.948;2023-04-15T08:03:58;100833.63;;;12.56;61.47
24013;BME280;12220;50.194;18.948;2023-04-15T08:06:07;100830.80;;;12.69;61.26
24013;BME280;12220;50.194;18.948;2023-04-15T08:08:09;100837.46;;;12.78;61.05
24013;BME280;12220;50.194;18.948;2023-04-15T08:10:10;100840.37;;;12.87;60.74
24013;BME280;12220;50.194;18.948;2023-04-15T08:12:12;100840.75;;;12.94;60.32
24013;BME280;12220;50.194;18.948;2023-04-15T08:14:23;100837.42;;;13.02;60.08
24013;BME280;12220;50.194;18.948;2023-04-15T08:16:25;100837.78;;;13.08;59.61
24013;BME280;12220;50.194;18.948;2023-04-15T08:18:28;100839.91;;;13.16;59.70
24013;BME280;12220;50.194;18.948;2023-04-15T08:20:29;100837.57;;;13.23;58.34
24013;BME280;12220;50.194;18.948;2023-04-15T08:22:37;100831.69;;;13.28;57.71
24013;BME280;12220;50.194;18.948;2023-04-15T08:24:38;100837.72;;;13.33;57.09
24013;BME280;12220;50.194;18.948;2023-04-15T08:26:41;100834.50;;;13.39;57.37
24013;BME280;12220;50.194;18.948;2023-04-15T08:28:44;100837.52;;;13.47;57.41
24013;BME280;12220;50.194;18.948;2023-04-15T08:30:52;100838.90;;;13.53;57.04
24013;BME280;12220;50.194;18.948;2023-04-15T08:32:53;100837.15;;;13.63;56.11
24013;BME280;12220;50.194;18.948;2023-04-15T08:34:55;100829.12;;;13.71;55.66
24013;BME280;12220;50.194;18.948;2023-04-15T08:36:56;100828.38;;;13.81;55.63
24013;BME280;12220;50.194;18.948;2023-04-15T08:39:07;100828.48;;;13.90;55.56
24013;BME280;12220;50.194;18.948;2023-04-15T08:41:19;100835.09;;;13.99;55.77
24013;BME280;12220;50.194;18.948;2023-04-15T08:43:23;100841.58;;;14.09;55.90
24013;BME280;12220;50.194;18.948;2023-04-15T08:45:30;100832.70;;;14.17;55.32
24013;BME280;12220;50.194;18.948;2023-04-15T08:47:32;100829.41;;;14.23;55.07
24013;BME280;12220;50.194;18.948;2023-04-15T08:49:49;100833.41;;;14.30;54.79
24013;BME280;12220;50.194;18.948;2023-04-15T08:51:54;100835.90;;;14.34;53.86
24013;BME280;12220;50.194;18.948;2023-04-15T08:53:56;100834.63;;;14.38;52.98
24013;BME280;12220;50.194;18.948;2023-04-15T08:56:03;100839.16;;;14.39;53.05
24013;BME280;12220;50.194;18.948;2023-04-15T08:58:07;100833.38;;;14.42;53.22
24013;BME280;12220;50.194;18.948;2023-04-15T09:00:12;100846.36;;;14.51;53.23
24013;BME280;12220;50.194;18.948;2023-04-15T09:02:14;100832.68;;;14.61;53.41
24013;BME280;12220;50.194;18.948;2023-04-15T09:04:16;100834.53;;;14.72;52.69
24013;BME280;12220;50.194;18.948;2023-04-15T09:06:19;100838.38;;;14.80;52.71
24013;BME280;12220;50.194;18.948;2023-04-15T09:08:21;100841.80;;;14.94;52.87
24013;BME280;12220;50.194;18.948;2023-04-15T09:10:23;100838.99;;;15.05;52.90
24013;BME280;12220;50.194;18.948;2023-04-15T09:12:24;100844.72;;;15.13;51.96
24013;BME280;12220;50.194;18.948;2023-04-15T09:14:33;100841.70;;;15.16;51.80
24013;BME280;12220;50.194;18.948;2023-04-15T09:18:48;100846.20;;;15.18;51.63
24013;BME280;12220;50.194;18.948;2023-04-15T09:20:52;100849.96;;;15.16;51.30
24013;BME280;12220;50.194;18.948;2023-04-15T09:22:53;100854.62;;;15.16;51.53
24013;BME280;12220;50.194;18.948;2023-04-15T09:24:55;100849.10;;;15.16;50.83
24013;BME280;12220;50.194;18.948;2023-04-15T09:26:57;100840.55;;;15.19;50.76
24013;BME280;12220;50.194;18.948;2023-04-15T09:29:07;100843.48;;;15.27;51.06
24013;BME280;12220;50.194;18.948;2023-04-15T09:31:09;100839.93;;;15.37;49.56
24013;BME280;12220;50.194;18.948;2023-04-15T09:33:13;99972.49;;;10.26;49.48
24013;BME280;12220;50.194;18.948;2023-04-15T09:35:15;100834.59;;;15.45;50.03
24013;BME280;12220;50.194;18.948;2023-04-15T09:37:16;100845.10;;;15.51;49.83
24013;BME280;12220;50.194;18.948;2023-04-15T09:39:22;100840.02;;;15.56;49.37
24013;BME280;12220;50.194;18.948;2023-04-15T09:41:26;100835.25;;;15.58;48.44
24013;BME280;12220;50.194;18.948;2023-04-15T09:43:38;100830.45;;;15.60;48.74
24013;BME280;12220;50.194;18.948;2023-04-15T09:45:48;100833.21;;;15.60;49.04
24013;BME280;12220;50.194;18.948;2023-04-15T09:47:53;100844.98;;;15.62;49.26
24013;BME280;12220;50.194;18.948;2023-04-15T09:49:59;100835.55;;;15.65;49.32
24013;BME280;12220;50.194;18.948;2023-04-15T09:52:02;100839.80;;;15.69;49.37
24013;BME280;12220;50.194;18.948;2023-04-15T09:54:04;100839.66;;;15.71;48.01
24013;BME280;12220;50.194;18.948;2023-04-15T10:03:40;100835.33;;;15.78;48.57
24013;BME280;12220;50.194;18.948;2023-04-15T10:05:42;100831.31;;;15.82;48.73
24013;BME280;12220;50.194;18.948;2023-04-15T10:07:50;100641.59;;;14.72;47.65
24013;BME280;12220;50.194;18.948;2023-04-15T10:09:52;100826.58;;;15.73;46.34
24013;BME280;12220;50.194;18.948;2023-04-15T10:11:54;100830.17;;;15.63;47.01
24013;BME280;12220;50.194;18.948;2023-04-15T10:13:56;100828.11;;;15.56;47.10
24013;BME280;12220;50.194;18.948;2023-04-15T10:16:14;100834.05;;;15.51;47.31
24013;BME280;12220;50.194;18.948;2023-04-15T10:18:27;100822.12;;;15.50;47.80
24013;BME280;12220;50.194;18.948;2023-04-15T10:20:29;100825.36;;;15.56;48.01
24013;BME280;12220;50.194;18.948;2023-04-15T10:22:31;100821.76;;;15.65;48.32
24013;BME280;12220;50.194;18.948;2023-04-15T10:24:33;100822.52;;;15.77;48.35
24013;BME280;12220;50.194;18.948;2023-04-15T10:26:41;100816.79;;;15.90;48.49
24013;BME280;12220;50.194;18.948;2023-04-15T10:28:44;100823.21;;;16.00;48.47
24013;BME280;12220;50.194;18.948;2023-04-15T10:30:50;100820.77;;;16.07;48.47
24013;BME280;12220;50.194;18.948;2023-04-15T10:32:54;100814.24;;;16.17;48.50
24013;BME280;12220;50.194;18.948;2023-04-15T10:34:57;100811.36;;;16.29;48.42
24013;BME280;12220;50.194;18.948;2023-04-15T10:37:03;100823.30;;;16.39;47.93
24013;BME280;12220;50.194;18.948;2023-04-15T10:41:21;100809.21;;;16.52;46.97
24013;BME280;12220;50.194;18.948;2023-04-15T10:43:26;100809.63;;;16.57;46.88
24013;BME280;12220;50.194;18.948;2023-04-15T10:45:34;100816.92;;;16.68;47.06
24013;BME280;12220;50.194;18.948;2023-04-15T10:47:36;100222.39;;;13.25;45.76
24013;BME280;12220;50.194;18.948;2023-04-15T10:49:45;100814.28;;;16.86;45.90
24013;BME280;12220;50.194;18.948;2023-04-15T10:51:52;100815.92;;;16.88;46.00
24013;BME280;12220;50.194;18.948;2023-04-15T10:53:58;100819.84;;;16.96;45.99
24013;BME280;12220;50.194;18.948;2023-04-15T10:56:09;100820.41;;;16.99;45.31
24013;BME280;12220;50.194;18.948;2023-04-15T10:58:10;100818.38;;;17.01;45.72